sensor_id;sensor_type;location;lat;lon;timestamp;P1;durP1;ratioP1;P2;durP2;ratioP2
8737;SDS011;4405;49.272;8.590;2023-02-26T00:02:20;1.87;;;1.77;;
8737;SDS011;4405;49.272;8.590;2023-02-26T00:04:47;3.50;;;2.10;;
8737;SDS011;4405;49.272;8.590;2023-02-26T00:07:13;4.07;;;2.43;;
8737;SDS011;4405;49.272;8.590;2023-02-26T00:09:39;2.87;;;1.93;;
8737;SDS011;4405;49.272;8.590;2023-02-26T00:12:06;3.70;;;2.37;;
8737;SDS011;4405;49.272;8.590;2023-02-26T00:14:34;5.43;;;2.40;;
8737;SDS011;4405;49.272;8.590;2023-02-26T00:17:12;2.80;;;2.20;;
8737;SDS011;4405;49.272;8.590;2023-02-26T00:19:40;2.83;;;2.17;;
8737;SDS011;4405;49.272;8.590;2023-02-26T00:22:06;3.93;;;2.40;;
8737;SDS011;4405;49.272;8.590;2023-02-26T00:24:33;3.87;;;2.37;;
8737;SDS011;4405;49.272;8.590;2023-02-26T00:26:59;2.97;;;2.40;;
8737;SDS011;4405;49.272;8.590;2023-02-26T00:29:26;2.30;;;1.90;;
8737;SDS011;4405;49.272;8.590;2023-02-26T00:31:54;4.20;;;2.50;;
8737;SDS011;4405;49.272;8.590;2023-02-26T00:34:20;3.87;;;2.50;;
8737;SDS011;4405;49.272;8.590;2023-02-26T00:36:48;7.27;;;3.53;;
8737;SDS011;4405;49.272;8.590;2023-02-26T00:39:19;4.90;;;3.30;;
8737;SDS011;4405;49.272;8.590;2023-02-26T00:41:49;4.07;;;2.73;;
8737;SDS011;4405;49.272;8.590;2023-02-26T00:44:16;3.87;;;2.50;;
8737;SDS011;4405;49.272;8.590;2023-02-26T00:46:43;2.90;;;2.50;;
8737;SDS011;4405;49.272;8.590;2023-02-26T00:49:15;4.03;;;2.57;;
8737;SDS011;4405;49.272;8.590;2023-02-26T00:51:44;2.73;;;2.50;;
8737;SDS011;4405;49.272;8.590;2023-02-26T00:54:15;5.63;;;3.03;;
8737;SDS011;4405;49.272;8.590;2023-02-26T00:56:43;3.60;;;2.80;;
8737;SDS011;4405;49.272;8.590;2023-02-26T00:59:09;6.63;;;3.90;;
8737;SDS011;4405;49.272;8.590;2023-02-26T01:01:35;8.10;;;3.80;;
8737;SDS011;4405;49.272;8.590;2023-02-26T01:04:02;6.30;;;4.37;;
8737;SDS011;4405;49.272;8.590;2023-02-26T01:06:31;6.10;;;3.80;;
8737;SDS011;4405;49.272;8.590;2023-02-26T01:08:59;5.40;;;3.40;;
8737;SDS011;4405;49.272;8.590;2023-02-26T01:11:27;4.20;;;3.50;;
8737;SDS011;4405;49.272;8.590;2023-02-26T01:13:54;3.00;;;2.70;;
8737;SDS011;4405;49.272;8.590;2023-02-26T01:16:21;2.60;;;2.40;;
8737;SDS011;4405;49.272;8.590;2023-02-26T01:18:51;4.17;;;2.50;;
8737;SDS011;4405;49.272;8.590;2023-02-26T01:21:21;4.87;;;2.57;;
8737;SDS011;4405;49.272;8.590;2023-02-26T01:23:50;3.00;;;2.63;;
8737;SDS011;4405;49.272;8.590;2023-02-26T01:26:17;3.00;;;2.50;;
8737;SDS011;4405;49.272;8.590;2023-02-26T01:28:45;7.97;;;2.77;;
8737;SDS011;4405;49.272;8.590;2023-02-26T01:31:23;2.53;;;2.33;;
8737;SDS011;4405;49.272;8.590;2023-02-26T01:33:52;6.77;;;2.80;;
8737;SDS011;4405;49.272;8.590;2023-02-26T01:36:21;4.00;;;2.57;;
8737;SDS011;4405;49.272;8.590;2023-02-26T01:38:51;3.67;;;2.80;;
8737;SDS011;4405;49.272;8.590;2023-02-26T01:41:32;3.67;;;2.53;;
8737;SDS011;4405;49.272;8.590;2023-02-26T01:44:08;2.50;;;2.30;;
8737;SDS011;4405;49.272;8.590;2023-02-26T01:46:42;3.60;;;2.30;;
8737;SDS011;4405;49.272;8.590;2023-02-26T01:49:11;4.43;;;2.73;;
8737;SDS011;4405;49.272;8.590;2023-02-26T01:51:40;3.37;;;2.20;;
8737;SDS011;4405;49.272;8.590;2023-02-26T01:54:07;4.93;;;2.50;;
8737;SDS011;4405;49.272;8.590;2023-02-26T01:56:34;5.33;;;2.50;;
8737;SDS011;4405;49.272;8.590;2023-02-26T01:59:01;2.77;;;2.57;;
8737;SDS011;4405;49.272;8.590;2023-02-26T02:01:30;2.90;;;2.70;;
8737;SDS011;4405;49.272;8.590;2023-02-26T02:03:56;4.67;;;2.40;;
8737;SDS011;4405;49.272;8.590;2023-02-26T02:06:23;5.63;;;2.23;;
8737;SDS011;4405;49.272;8.590;2023-02-26T02:08:50;2.43;;;2.20;;
8737;SDS011;4405;49.272;8.590;2023-02-26T02:11:18;2.50;;;2.30;;
8737;SDS011;4405;49.272;8.590;2023-02-26T02:13:52;3.00;;;2.23;;
8737;SDS011;4405;49.272;8.590;2023-02-26T02:16:23;3.50;;;2.33;;
8737;SDS011;4405;49.272;8.590;2023-02-26T02:18:52;2.27;;;2.07;;
8737;SDS011;4405;49.272;8.590;2023-02-26T02:24:07;2.27;;;2.07;;
8737;SDS011;4405;49.272;8.590;2023-02-26T02:26:45;3.27;;;2.20;;
8737;SDS011;4405;49.272;8.590;2023-02-26T02:29:19;2.80;;;2.47;;
8737;SDS011;4405;49.272;8.590;2023-02-26T02:31:49;5.53;;;2.50;;
8737;SDS011;4405;49.272;8.590;2023-02-26T02:34:18;4.00;;;2.40;;
8737;SDS011;4405;49.272;8.590;2023-02-26T02:36:49;5.20;;;2.60;;
8737;SDS011;4405;49.272;8.590;2023-02-26T02:39:17;5.57;;;2.60;;
8737;SDS011;4405;49.272;8.590;2023-02-26T02:41:46;5.27;;;2.67;;
8737;SDS011;4405;49.272;8.590;2023-02-26T02:44:14;5.03;;;2.20;;
8737;SDS011;4405;49.272;8.590;2023-02-26T02:46:43;2.93;;;2.70;;
8737;SDS011;4405;49.272;8.590;2023-02-26T02:49:12;2.83;;;2.60;;
8737;SDS011;4405;49.272;8.590;2023-02-26T02:51:41;6.30;;;2.90;;
8737;SDS011;4405;49.272;8.590;2023-02-26T02:54:10;6.23;;;2.83;;
8737;SDS011;4405;49.272;8.590;2023-02-26T02:56:38;5.17;;;2.60;;
8737;SDS011;4405;49.272;8.590;2023-02-26T02:59:09;6.87;;;2.80;;
8737;SDS011;4405;49.272;8.590;2023-02-26T03:01:37;4.67;;;2.87;;
8737;SDS011;4405;49.272;8.590;2023-02-26T03:04:05;5.53;;;2.67;;
8737;SDS011;4405;49.272;8.590;2023-02-26T03:06:34;5.70;;;3.03;;
8737;SDS011;4405;49.272;8.590;2023-02-26T03:09:01;3.67;;;2.90;;
8737;SDS011;4405;49.272;8.590;2023-02-26T03:11:28;5.13;;;2.40;;
8737;SDS011;4405;49.272;8.590;2023-02-26T03:13:55;4.03;;;2.60;;
8737;SDS011;4405;49.272;8.590;2023-02-26T03:16:28;7.37;;;2.70;;
8737;SDS011;4405;49.272;8.590;2023-02-26T03:18:58;8.83;;;2.80;;
8737;SDS011;4405;49.272;8.590;2023-02-26T03:21:26;4.23;;;2.60;;
8737;SDS011;4405;49.272;8.590;2023-02-26T03:24:00;4.03;;;2.60;;
8737;SDS011;4405;49.272;8.590;2023-02-26T03:26:31;6.13;;;3.17;;
8737;SDS011;4405;49.272;8.590;2023-02-26T03:29:01;4.23;;;2.50;;
8737;SDS011;4405;49.272;8.590;2023-02-26T03:31:30;4.87;;;2.37;;
8737;SDS011;4405;49.272;8.590;2023-02-26T03:33:58;7.33;;;3.00;;
8737;SDS011;4405;49.272;8.590;2023-02-26T03:36:28;9.37;;;2.90;;
8737;SDS011;4405;49.272;8.590;2023-02-26T03:38:56;4.67;;;2.70;;
8737;SDS011;4405;49.272;8.590;2023-02-26T03:41:26;5.67;;;2.67;;
8737;SDS011;4405;49.272;8.590;2023-02-26T03:43:55;9.40;;;3.03;;
8737;SDS011;4405;49.272;8.590;2023-02-26T03:46:24;5.50;;;2.40;;
8737;SDS011;4405;49.272;8.590;2023-02-26T03:48:52;2.77;;;2.40;;
8737;SDS011;4405;49.272;8.590;2023-02-26T03:51:19;3.93;;;2.33;;
8737;SDS011;4405;49.272;8.590;2023-02-26T03:53:48;4.40;;;2.23;;
8737;SDS011;4405;49.272;8.590;2023-02-26T03:56:17;2.60;;;2.40;;
8737;SDS011;4405;49.272;8.590;2023-02-26T03:58:45;5.73;;;2.60;;
8737;SDS011;4405;49.272;8.590;2023-02-26T04:01:13;4.53;;;2.60;;
8737;SDS011;4405;49.272;8.590;2023-02-26T04:03:43;4.07;;;2.83;;
8737;SDS011;4405;49.272;8.590;2023-02-26T04:06:11;3.13;;;2.37;;
8737;SDS011;4405;49.272;8.590;2023-02-26T04:08:37;6.60;;;2.90;;
8737;SDS011;4405;49.272;8.590;2023-02-26T04:11:05;3.00;;;2.37;;
8737;SDS011;4405;49.272;8.590;2023-02-26T04:13:33;2.97;;;2.73;;
8737;SDS011;4405;49.272;8.590;2023-02-26T04:16:00;4.17;;;2.60;;
8737;SDS011;4405;49.272;8.590;2023-02-26T04:18:27;2.90;;;2.40;;
8737;SDS011;4405;49.272;8.590;2023-02-26T04:20:53;5.13;;;2.70;;
8737;SDS011;4405;49.272;8.590;2023-02-26T04:23:19;2.53;;;2.33;;
8737;SDS011;4405;49.272;8.590;2023-02-26T04:25:46;4.80;;;2.47;;
8737;SDS011;4405;49.272;8.590;2023-02-26T04:28:12;3.10;;;2.50;;
8737;SDS011;4405;49.272;8.590;2023-02-26T04:30:39;2.87;;;2.43;;
8737;SDS011;4405;49.272;8.590;2023-02-26T04:33:06;3.57;;;2.70;;
8737;SDS011;4405;49.272;8.590;2023-02-26T04:35:33;3.20;;;2.60;;
8737;SDS011;4405;49.272;8.590;2023-02-26T04:37:59;4.17;;;2.80;;
8737;SDS011;4405;49.272;8.590;2023-02-26T04:40:26;3.83;;;2.60;;
8737;SDS011;4405;49.272;8.590;2023-02-26T04:42:52;3.07;;;2.87;;
8737;SDS011;4405;49.272;8.590;2023-02-26T04:45:19;4.97;;;3.30;;
8737;SDS011;4405;49.272;8.590;2023-02-26T04:47:45;5.37;;;2.60;;
8737;SDS011;4405;49.272;8.590;2023-02-26T04:50:13;3.30;;;3.00;;
8737;SDS011;4405;49.272;8.590;2023-02-26T04:52:39;5.53;;;3.20;;
8737;SDS011;4405;49.272;8.590;2023-02-26T04:55:06;4.97;;;3.60;;
8737;SDS011;4405;49.272;8.590;2023-02-26T04:57:32;4.03;;;3.20;;
8737;SDS011;4405;49.272;8.590;2023-02-26T04:59:59;3.47;;;3.10;;
8737;SDS011;4405;49.272;8.590;2023-02-26T05:02:25;5.43;;;2.93;;
8737;SDS011;4405;49.272;8.590;2023-02-26T05:04:51;3.93;;;2.90;;
8737;SDS011;4405;49.272;8.590;2023-02-26T05:07:19;4.73;;;2.93;;
8737;SDS011;4405;49.272;8.590;2023-02-26T05:09:45;4.43;;;2.90;;
8737;SDS011;4405;49.272;8.590;2023-02-26T05:12:12;4.57;;;2.63;;
8737;SDS011;4405;49.272;8.590;2023-02-26T05:14:38;4.17;;;3.07;;
8737;SDS011;4405;49.272;8.590;2023-02-26T05:17:04;5.60;;;3.23;;
8737;SDS011;4405;49.272;8.590;2023-02-26T05:19:31;5.20;;;2.87;;
8737;SDS011;4405;49.272;8.590;2023-02-26T05:21:57;4.90;;;3.00;;
8737;SDS011;4405;49.272;8.590;2023-02-26T05:24:25;4.60;;;3.00;;
8737;SDS011;4405;49.272;8.590;2023-02-26T05:26:51;5.13;;;3.10;;
8737;SDS011;4405;49.272;8.590;2023-02-26T05:29:17;7.40;;;3.30;;
8737;SDS011;4405;49.272;8.590;2023-02-26T05:31:44;5.17;;;2.90;;
8737;SDS011;4405;49.272;8.590;2023-02-26T05:34:10;6.67;;;2.70;;
8737;SDS011;4405;49.272;8.590;2023-02-26T05:36:36;3.80;;;3.17;;
8737;SDS011;4405;49.272;8.590;2023-02-26T05:39:03;4.47;;;3.30;;
8737;SDS011;4405;49.272;8.590;2023-02-26T05:41:30;3.47;;;2.90;;
8737;SDS011;4405;49.272;8.590;2023-02-26T05:43:57;3.60;;;2.77;;
8737;SDS011;4405;49.272;8.590;2023-02-26T05:46:23;3.53;;;2.87;;
8737;SDS011;4405;49.272;8.590;2023-02-26T05:48:49;6.60;;;3.20;;
8737;SDS011;4405;49.272;8.590;2023-02-26T05:51:16;5.03;;;2.93;;
8737;SDS011;4405;49.272;8.590;2023-02-26T05:53:42;5.07;;;3.00;;
8737;SDS011;4405;49.272;8.590;2023-02-26T05:56:10;6.37;;;2.90;;
8737;SDS011;4405;49.272;8.590;2023-02-26T05:58:37;4.10;;;2.57;;
8737;SDS011;4405;49.272;8.590;2023-02-26T06:01:04;4.03;;;2.83;;
8737;SDS011;4405;49.272;8.590;2023-02-26T06:03:30;4.30;;;2.57;;
8737;SDS011;4405;49.272;8.590;2023-02-26T06:05:56;2.40;;;2.30;;
8737;SDS011;4405;49.272;8.590;2023-02-26T06:08:23;3.87;;;2.47;;
8737;SDS011;4405;49.272;8.590;2023-02-26T06:10:49;2.97;;;2.53;;
8737;SDS011;4405;49.272;8.590;2023-02-26T06:13:16;3.80;;;2.30;;
8737;SDS011;4405;49.272;8.590;2023-02-26T06:15:43;4.47;;;2.40;;
8737;SDS011;4405;49.272;8.590;2023-02-26T06:18:10;3.23;;;2.50;;
8737;SDS011;4405;49.272;8.590;2023-02-26T06:20:36;5.63;;;2.57;;
8737;SDS011;4405;49.272;8.590;2023-02-26T06:23:02;2.40;;;1.80;;
8737;SDS011;4405;49.272;8.590;2023-02-26T06:25:29;2.93;;;2.10;;
8737;SDS011;4405;49.272;8.590;2023-02-26T06:27:55;3.50;;;1.90;;
8737;SDS011;4405;49.272;8.590;2023-02-26T06:30:21;2.57;;;2.10;;
8737;SDS011;4405;49.272;8.590;2023-02-26T06:32:50;5.53;;;2.00;;
8737;SDS011;4405;49.272;8.590;2023-02-26T06:35:16;2.37;;;2.17;;
8737;SDS011;4405;49.272;8.590;2023-02-26T06:37:42;1.90;;;1.80;;
8737;SDS011;4405;49.272;8.590;2023-02-26T06:40:09;2.40;;;2.00;;
8737;SDS011;4405;49.272;8.590;2023-02-26T06:42:36;4.70;;;2.10;;
8737;SDS011;4405;49.272;8.590;2023-02-26T06:45:03;2.17;;;1.97;;
8737;SDS011;4405;49.272;8.590;2023-02-26T06:47:29;2.43;;;2.03;;
8737;SDS011;4405;49.272;8.590;2023-02-26T06:49:57;3.70;;;2.07;;
8737;SDS011;4405;49.272;8.590;2023-02-26T06:52:23;2.00;;;1.80;;
8737;SDS011;4405;49.272;8.590;2023-02-26T06:54:50;3.73;;;2.43;;
8737;SDS011;4405;49.272;8.590;2023-02-26T06:57:16;7.17;;;3.67;;
8737;SDS011;4405;49.272;8.590;2023-02-26T06:59:42;8.27;;;3.30;;
8737;SDS011;4405;49.272;8.590;2023-02-26T07:02:11;2.43;;;2.30;;
8737;SDS011;4405;49.272;8.590;2023-02-26T07:04:40;4.37;;;2.30;;
8737;SDS011;4405;49.272;8.590;2023-02-26T07:07:08;5.87;;;2.97;;
8737;SDS011;4405;49.272;8.590;2023-02-26T07:09:34;3.97;;;3.17;;
8737;SDS011;4405;49.272;8.590;2023-02-26T07:12:00;4.93;;;2.60;;
8737;SDS011;4405;49.272;8.590;2023-02-26T07:14:27;4.23;;;2.53;;
8737;SDS011;4405;49.272;8.590;2023-02-26T07:16:56;3.07;;;2.30;;
8737;SDS011;4405;49.272;8.590;2023-02-26T07:19:22;4.03;;;2.17;;
8737;SDS011;4405;49.272;8.590;2023-02-26T07:21:48;3.73;;;2.53;;
8737;SDS011;4405;49.272;8.590;2023-02-26T07:24:16;3.53;;;2.23;;
8737;SDS011;4405;49.272;8.590;2023-02-26T07:26:43;3.03;;;2.70;;
8737;SDS011;4405;49.272;8.590;2023-02-26T07:29:09;4.17;;;2.37;;
8737;SDS011;4405;49.272;8.590;2023-02-26T07:31:35;4.73;;;2.23;;
8737;SDS011;4405;49.272;8.590;2023-02-26T07:34:02;2.67;;;2.00;;
8737;SDS011;4405;49.272;8.590;2023-02-26T07:36:28;3.20;;;2.07;;
8737;SDS011;4405;49.272;8.590;2023-02-26T07:38:55;3.60;;;2.10;;
8737;SDS011;4405;49.272;8.590;2023-02-26T07:41:22;2.90;;;2.60;;
8737;SDS011;4405;49.272;8.590;2023-02-26T07:43:49;2.33;;;2.13;;
8737;SDS011;4405;49.272;8.590;2023-02-26T07:46:15;3.77;;;1.97;;
8737;SDS011;4405;49.272;8.590;2023-02-26T07:48:41;2.77;;;2.03;;
8737;SDS011;4405;49.272;8.590;2023-02-26T07:51:08;2.30;;;1.97;;
8737;SDS011;4405;49.272;8.590;2023-02-26T07:53:35;2.77;;;1.73;;
8737;SDS011;4405;49.272;8.590;2023-02-26T07:56:01;3.93;;;1.50;;
8737;SDS011;4405;49.272;8.590;2023-02-26T07:58:29;2.03;;;1.80;;
8737;SDS011;4405;49.272;8.590;2023-02-26T08:00:56;1.90;;;1.80;;
8737;SDS011;4405;49.272;8.590;2023-02-26T08:03:23;2.93;;;1.50;;
8737;SDS011;4405;49.272;8.590;2023-02-26T08:05:49;2.30;;;1.80;;
8737;SDS011;4405;49.272;8.590;2023-02-26T08:08:15;2.27;;;1.97;;
8737;SDS011;4405;49.272;8.590;2023-02-26T08:10:42;5.80;;;2.60;;
8737;SDS011;4405;49.272;8.590;2023-02-26T08:13:08;2.17;;;1.70;;
8737;SDS011;4405;49.272;8.590;2023-02-26T08:15:36;3.00;;;2.00;;
8737;SDS011;4405;49.272;8.590;2023-02-26T08:18:03;1.80;;;1.70;;
8737;SDS011;4405;49.272;8.590;2023-02-26T08:20:29;4.00;;;2.00;;
8737;SDS011;4405;49.272;8.590;2023-02-26T08:22:56;3.47;;;1.53;;
8737;SDS011;4405;49.272;8.590;2023-02-26T08:25:22;2.57;;;2.10;;
8737;SDS011;4405;49.272;8.590;2023-02-26T08:27:48;1.83;;;1.70;;
8737;SDS011;4405;49.272;8.590;2023-02-26T08:30:15;3.30;;;1.90;;
8737;SDS011;4405;49.272;8.590;2023-02-26T08:32:42;5.23;;;1.80;;
8737;SDS011;4405;49.272;8.590;2023-02-26T08:35:10;3.77;;;1.80;;
8737;SDS011;4405;49.272;8.590;2023-02-26T08:37:36;2.07;;;1.90;;
8737;SDS011;4405;49.272;8.590;2023-02-26T08:40:03;2.30;;;1.70;;
8737;SDS011;4405;49.272;8.590;2023-02-26T08:42:30;5.07;;;2.10;;
8737;SDS011;4405;49.272;8.590;2023-02-26T08:44:56;2.97;;;1.80;;
8737;SDS011;4405;49.272;8.590;2023-02-26T08:47:23;3.17;;;1.90;;
8737;SDS011;4405;49.272;8.590;2023-02-26T08:49:50;2.10;;;1.80;;
8737;SDS011;4405;49.272;8.590;2023-02-26T08:52:17;3.00;;;1.70;;
8737;SDS011;4405;49.272;8.590;2023-02-26T08:54:43;2.83;;;1.97;;
8737;SDS011;4405;49.272;8.590;2023-02-26T08:57:10;2.23;;;1.93;;
8737;SDS011;4405;49.272;8.590;2023-02-26T08:59:36;2.00;;;1.60;;
8737;SDS011;4405;49.272;8.590;2023-02-26T09:02:02;3.90;;;1.70;;
8737;SDS011;4405;49.272;8.590;2023-02-26T09:04:29;4.50;;;1.80;;
8737;SDS011;4405;49.272;8.590;2023-02-26T09:06:57;3.03;;;1.93;;
8737;SDS011;4405;49.272;8.590;2023-02-26T09:09:23;2.67;;;1.77;;
8737;SDS011;4405;49.272;8.590;2023-02-26T09:11:49;2.50;;;1.60;;
8737;SDS011;4405;49.272;8.590;2023-02-26T09:14:16;4.10;;;1.80;;
8737;SDS011;4405;49.272;8.590;2023-02-26T09:16:42;1.67;;;1.50;;
8737;SDS011;4405;49.272;8.590;2023-02-26T09:19:08;4.70;;;1.70;;
8737;SDS011;4405;49.272;8.590;2023-02-26T09:21:35;2.10;;;1.70;;
8737;SDS011;4405;49.272;8.590;2023-02-26T09:24:03;3.27;;;1.73;;
8737;SDS011;4405;49.272;8.590;2023-02-26T09:26:29;2.07;;;1.60;;
8737;SDS011;4405;49.272;8.590;2023-02-26T09:28:55;2.30;;;1.67;;
8737;SDS011;4405;49.272;8.590;2023-02-26T09:31:22;3.70;;;1.80;;
8737;SDS011;4405;49.272;8.590;2023-02-26T09:33:48;1.83;;;1.63;;
8737;SDS011;4405;49.272;8.590;2023-02-26T09:36:14;1.67;;;1.33;;
8737;SDS011;4405;49.272;8.590;2023-02-26T09:38:41;4.30;;;2.00;;
8737;SDS011;4405;49.272;8.590;2023-02-26T09:41:15;2.73;;;1.60;;
8737;SDS011;4405;49.272;8.590;2023-02-26T09:44:06;1.70;;;1.60;;
8737;SDS011;4405;49.272;8.590;2023-02-26T09:46:37;1.73;;;1.50;;
8737;SDS011;4405;49.272;8.590;2023-02-26T09:49:06;1.40;;;1.30;;
8737;SDS011;4405;49.272;8.590;2023-02-26T09:51:36;1.97;;;1.30;;
8737;SDS011;4405;49.272;8.590;2023-02-26T09:54:03;3.20;;;2.70;;
8737;SDS011;4405;49.272;8.590;2023-02-26T09:56:35;1.77;;;1.67;;
8737;SDS011;4405;49.272;8.590;2023-02-26T09:59:02;2.00;;;1.30;;
8737;SDS011;4405;49.272;8.590;2023-02-26T10:01:30;3.83;;;3.17;;
8737;SDS011;4405;49.272;8.590;2023-02-26T10:04:00;3.37;;;2.90;;
8737;SDS011;4405;49.272;8.590;2023-02-26T10:06:30;3.30;;;2.77;;
8737;SDS011;4405;49.272;8.590;2023-02-26T10:09:03;2.50;;;1.60;;
8737;SDS011;4405;49.272;8.590;2023-02-26T10:11:34;2.10;;;2.00;;
8737;SDS011;4405;49.272;8.590;2023-02-26T10:14:05;2.57;;;2.37;;
8737;SDS011;4405;49.272;8.590;2023-02-26T10:16:36;1.73;;;1.63;;
8737;SDS011;4405;49.272;8.590;2023-02-26T10:19:03;3.70;;;3.27;;
8737;SDS011;4405;49.272;8.590;2023-02-26T10:21:33;2.73;;;2.53;;
8737;SDS011;4405;49.272;8.590;2023-02-26T10:24:01;2.50;;;2.30;;
8737;SDS011;4405;49.272;8.590;2023-02-26T10:26:32;1.87;;;1.77;;
8737;SDS011;4405;49.272;8.590;2023-02-26T10:29:02;1.13;;;1.13;;
8737;SDS011;4405;49.272;8.590;2023-02-26T10:31:34;2.00;;;1.20;;
8737;SDS011;4405;49.272;8.590;2023-02-26T10:34:14;1.97;;;1.53;;
8737;SDS011;4405;49.272;8.590;2023-02-26T10:36:44;1.80;;;1.60;;
8737;SDS011;4405;49.272;8.590;2023-02-26T10:39:16;2.17;;;1.30;;
8737;SDS011;4405;49.272;8.590;2023-02-26T10:41:44;1.30;;;1.20;;
8737;SDS011;4405;49.272;8.590;2023-02-26T10:44:12;1.30;;;1.30;;
8737;SDS011;4405;49.272;8.590;2023-02-26T10:46:44;1.60;;;1.50;;
8737;SDS011;4405;49.272;8.590;2023-02-26T10:51:52;1.50;;;1.40;;
8737;SDS011;4405;49.272;8.590;2023-02-26T10:54:20;1.93;;;1.80;;
8737;SDS011;4405;49.272;8.590;2023-02-26T10:56:48;1.57;;;1.20;;
8737;SDS011;4405;49.272;8.590;2023-02-26T10:59:14;1.60;;;1.50;;
8737;SDS011;4405;49.272;8.590;2023-02-26T11:01:40;2.20;;;2.00;;
8737;SDS011;4405;49.272;8.590;2023-02-26T11:04:10;2.03;;;1.90;;
8737;SDS011;4405;49.272;8.590;2023-02-26T11:06:38;2.10;;;2.00;;
8737;SDS011;4405;49.272;8.590;2023-02-26T11:09:06;1.57;;;1.47;;
8737;SDS011;4405;49.272;8.590;2023-02-26T11:11:41;1.63;;;1.53;;
8737;SDS011;4405;49.272;8.590;2023-02-26T11:14:08;3.23;;;2.40;;
8737;SDS011;4405;49.272;8.590;2023-02-26T11:16:34;2.03;;;2.00;;
8737;SDS011;4405;49.272;8.590;2023-02-26T11:19:06;1.40;;;1.30;;
8737;SDS011;4405;49.272;8.590;2023-02-26T11:21:35;1.10;;;1.10;;
8737;SDS011;4405;49.272;8.590;2023-02-26T11:24:04;1.60;;;1.17;;
8737;SDS011;4405;49.272;8.590;2023-02-26T11:26:33;1.30;;;1.20;;
8737;SDS011;4405;49.272;8.590;2023-02-26T11:29:00;0.97;;;0.97;;
8737;SDS011;4405;49.272;8.590;2023-02-26T11:31:26;1.60;;;1.30;;
8737;SDS011;4405;49.272;8.590;2023-02-26T11:33:53;1.60;;;1.50;;
8737;SDS011;4405;49.272;8.590;2023-02-26T11:36:24;1.33;;;1.10;;
8737;SDS011;4405;49.272;8.590;2023-02-26T11:39:01;1.10;;;1.10;;
8737;SDS011;4405;49.272;8.590;2023-02-26T11:41:28;1.23;;;1.20;;
8737;SDS011;4405;49.272;8.590;2023-02-26T11:43:58;1.60;;;1.17;;
8737;SDS011;4405;49.272;8.590;2023-02-26T11:46:25;0.90;;;0.90;;
8737;SDS011;4405;49.272;8.590;2023-02-26T11:48:52;1.67;;;1.57;;
8737;SDS011;4405;49.272;8.590;2023-02-26T11:51:21;1.20;;;1.20;;
8737;SDS011;4405;49.272;8.590;2023-02-26T11:53:50;1.10;;;1.10;;
8737;SDS011;4405;49.272;8.590;2023-02-26T11:56:21;1.00;;;1.00;;
8737;SDS011;4405;49.272;8.590;2023-02-26T11:58:50;1.20;;;1.20;;
8737;SDS011;4405;49.272;8.590;2023-02-26T12:01:17;1.20;;;1.20;;
8737;SDS011;4405;49.272;8.590;2023-02-26T12:03:47;0.80;;;0.80;;
8737;SDS011;4405;49.272;8.590;2023-02-26T12:06:15;1.30;;;1.30;;
8737;SDS011;4405;49.272;8.590;2023-02-26T12:08:42;1.97;;;1.87;;
8737;SDS011;4405;49.272;8.590;2023-02-26T12:14:00;1.63;;;1.53;;
8737;SDS011;4405;49.272;8.590;2023-02-26T12:16:29;1.07;;;1.07;;
8737;SDS011;4405;49.272;8.590;2023-02-26T12:19:00;0.90;;;0.90;;
8737;SDS011;4405;49.272;8.590;2023-02-26T12:21:30;0.90;;;0.90;;
8737;SDS011;4405;49.272;8.590;2023-02-26T12:24:09;1.20;;;1.20;;
8737;SDS011;4405;49.272;8.590;2023-02-26T12:26:39;1.23;;;1.23;;
8737;SDS011;4405;49.272;8.590;2023-02-26T12:29:16;0.80;;;0.80;;
8737;SDS011;4405;49.272;8.590;2023-02-26T12:34:35;1.10;;;1.10;;
8737;SDS011;4405;49.272;8.590;2023-02-26T12:37:06;1.33;;;1.30;;
8737;SDS011;4405;49.272;8.590;2023-02-26T12:39:42;0.83;;;0.83;;
8737;SDS011;4405;49.272;8.590;2023-02-26T12:42:12;5.70;;;4.20;;
8737;SDS011;4405;49.272;8.590;2023-02-26T12:47:33;1.33;;;1.13;;
8737;SDS011;4405;49.272;8.590;2023-02-26T12:52:46;2.93;;;1.23;;
8737;SDS011;4405;49.272;8.590;2023-02-26T12:55:27;0.90;;;0.90;;
8737;SDS011;4405;49.272;8.590;2023-02-26T12:58:12;0.80;;;0.80;;
8737;SDS011;4405;49.272;8.590;2023-02-26T13:00:45;1.17;;;0.93;;
8737;SDS011;4405;49.272;8.590;2023-02-26T13:06:04;0.93;;;0.93;;
8737;SDS011;4405;49.272;8.590;2023-02-26T13:08:33;1.27;;;1.10;;
8737;SDS011;4405;49.272;8.590;2023-02-26T13:11:09;1.30;;;1.30;;
8737;SDS011;4405;49.272;8.590;2023-02-26T13:16:24;0.90;;;0.90;;
8737;SDS011;4405;49.272;8.590;2023-02-26T13:18:56;1.37;;;1.37;;
8737;SDS011;4405;49.272;8.590;2023-02-26T13:21:26;1.47;;;1.37;;
8737;SDS011;4405;49.272;8.590;2023-02-26T13:23:55;0.90;;;0.90;;
8737;SDS011;4405;49.272;8.590;2023-02-26T13:26:23;1.40;;;1.40;;
8737;SDS011;4405;49.272;8.590;2023-02-26T13:28:52;1.40;;;1.30;;
8737;SDS011;4405;49.272;8.590;2023-02-26T13:31:20;1.03;;;1.03;;
8737;SDS011;4405;49.272;8.590;2023-02-26T13:33:47;0.90;;;0.90;;
8737;SDS011;4405;49.272;8.590;2023-02-26T13:36:15;0.90;;;0.90;;
8737;SDS011;4405;49.272;8.590;2023-02-26T13:38:48;0.97;;;0.97;;
8737;SDS011;4405;49.272;8.590;2023-02-26T13:41:20;0.87;;;0.87;;
8737;SDS011;4405;49.272;8.590;2023-02-26T13:43:54;0.80;;;0.80;;
8737;SDS011;4405;49.272;8.590;2023-02-26T13:46:25;0.77;;;0.77;;
8737;SDS011;4405;49.272;8.590;2023-02-26T13:48:55;0.70;;;0.70;;
8737;SDS011;4405;49.272;8.590;2023-02-26T13:51:26;0.77;;;0.70;;
8737;SDS011;4405;49.272;8.590;2023-02-26T13:53:58;0.80;;;0.80;;
8737;SDS011;4405;49.272;8.590;2023-02-26T13:59:28;0.50;;;0.50;;
8737;SDS011;4405;49.272;8.590;2023-02-26T14:01:56;0.67;;;0.67;;
8737;SDS011;4405;49.272;8.590;2023-02-26T14:04:24;0.80;;;0.80;;
8737;SDS011;4405;49.272;8.590;2023-02-26T14:06:52;0.77;;;0.77;;
8737;SDS011;4405;49.272;8.590;2023-02-26T14:12:23;0.80;;;0.80;;
8737;SDS011;4405;49.272;8.590;2023-02-26T14:17:38;1.23;;;1.17;;
8737;SDS011;4405;49.272;8.590;2023-02-26T14:20:19;1.00;;;1.00;;
8737;SDS011;4405;49.272;8.590;2023-02-26T14:22:46;1.20;;;1.20;;
8737;SDS011;4405;49.272;8.590;2023-02-26T14:25:14;0.70;;;0.70;;
8737;SDS011;4405;49.272;8.590;2023-02-26T14:27:45;0.80;;;0.80;;
8737;SDS011;4405;49.272;8.590;2023-02-26T14:30:15;2.80;;;1.87;;
8737;SDS011;4405;49.272;8.590;2023-02-26T14:32:46;0.80;;;0.80;;
8737;SDS011;4405;49.272;8.590;2023-02-26T14:35:13;0.70;;;0.70;;
8737;SDS011;4405;49.272;8.590;2023-02-26T14:37:40;1.00;;;1.00;;
8737;SDS011;4405;49.272;8.590;2023-02-26T14:40:12;0.90;;;0.90;;
8737;SDS011;4405;49.272;8.590;2023-02-26T14:42:40;1.20;;;1.20;;
8737;SDS011;4405;49.272;8.590;2023-02-26T14:45:26;1.50;;;1.40;;
8737;SDS011;4405;49.272;8.590;2023-02-26T14:47:53;1.30;;;1.20;;
8737;SDS011;4405;49.272;8.590;2023-02-26T14:50:21;1.40;;;1.40;;
8737;SDS011;4405;49.272;8.590;2023-02-26T14:52:53;1.70;;;1.00;;
8737;SDS011;4405;49.272;8.590;2023-02-26T14:55:40;1.43;;;1.40;;
8737;SDS011;4405;49.272;8.590;2023-02-26T14:58:12;0.90;;;0.90;;
8737;SDS011;4405;49.272;8.590;2023-02-26T15:00:43;1.33;;;0.70;;
8737;SDS011;4405;49.272;8.590;2023-02-26T15:03:18;1.20;;;1.20;;
8737;SDS011;4405;49.272;8.590;2023-02-26T15:05:50;1.20;;;1.20;;
8737;SDS011;4405;49.272;8.590;2023-02-26T15:11:07;0.60;;;0.60;;
8737;SDS011;4405;49.272;8.590;2023-02-26T15:13:47;0.80;;;0.80;;
8737;SDS011;4405;49.272;8.590;2023-02-26T15:16:20;1.27;;;1.27;;
8737;SDS011;4405;49.272;8.590;2023-02-26T15:18:52;1.07;;;0.93;;
8737;SDS011;4405;49.272;8.590;2023-02-26T15:21:22;0.60;;;0.60;;
8737;SDS011;4405;49.272;8.590;2023-02-26T15:23:50;4.57;;;3.67;;
8737;SDS011;4405;49.272;8.590;2023-02-26T15:26:18;6.73;;;4.97;;
8737;SDS011;4405;49.272;8.590;2023-02-26T15:28:45;3.00;;;2.80;;
8737;SDS011;4405;49.272;8.590;2023-02-26T15:31:13;2.10;;;2.00;;
8737;SDS011;4405;49.272;8.590;2023-02-26T15:33:40;1.40;;;1.40;;
8737;SDS011;4405;49.272;8.590;2023-02-26T15:36:10;1.20;;;1.20;;
8737;SDS011;4405;49.272;8.590;2023-02-26T15:38:41;2.57;;;2.20;;
8737;SDS011;4405;49.272;8.590;2023-02-26T15:41:07;1.87;;;1.50;;
8737;SDS011;4405;49.272;8.590;2023-02-26T15:43:34;1.30;;;1.20;;
8737;SDS011;4405;49.272;8.590;2023-02-26T15:46:01;1.27;;;1.10;;
8737;SDS011;4405;49.272;8.590;2023-02-26T15:48:28;2.30;;;2.10;;
8737;SDS011;4405;49.272;8.590;2023-02-26T15:50:57;2.00;;;1.20;;
8737;SDS011;4405;49.272;8.590;2023-02-26T15:53:27;1.57;;;1.20;;
8737;SDS011;4405;49.272;8.590;2023-02-26T15:55:54;1.00;;;1.00;;
8737;SDS011;4405;49.272;8.590;2023-02-26T15:58:26;1.33;;;1.33;;